sensor_id;sensor_type;location;lat;lon;timestamp;pressure;altitude;pressure_sealevel;temperature;humidity
6389;BME280;3227;42.654;23.360;2024-01-11T00:00:19;95348.47;;;-1.07;73.10
6389;BME280;3227;42.654;23.360;2024-01-11T00:02:46;95355.31;;;-1.04;73.12
6389;BME280;3227;42.654;23.360;2024-01-11T00:05:12;95351.78;;;-1.08;72.86
6389;BME280;3227;42.654;23.360;2024-01-11T00:07:41;95344.59;;;-1.17;72.49
6389;BME280;3227;42.654;23.360;2024-01-11T00:10:08;95312.50;;;-1.35;73.50
6389;BME280;3227;42.654;23.360;2024-01-11T00:12:34;95332.88;;;-1.31;73.87
6389;BME280;3227;42.654;23.360;2024-01-11T00:15:01;95333.28;;;-1.23;73.49
6389;BME280;3227;42.654;23.360;2024-01-11T00:17:28;95324.91;;;-1.24;73.14
6389;BME280;3227;42.654;23.360;2024-01-11T00:19:55;95342.66;;;-1.21;73.21
6389;BME280;3227;42.654;23.360;2024-01-11T00:22:22;95331.75;;;-1.21;72.65
6389;BME280;3227;42.654;23.360;2024-01-11T00:24:50;95329.84;;;-1.25;72.75
6389;BME280;3227;42.654;23.360;2024-01-11T00:27:17;95309.22;;;-1.49;72.97
6389;BME280;3227;42.654;23.360;2024-01-11T00:29:43;95328.97;;;-1.40;73.16
6389;BME280;3227;42.654;23.360;2024-01-11T00:32:10;95335.03;;;-1.37;73.26
6389;BME280;3227;42.654;23.360;2024-01-11T00:34:37;95332.44;;;-1.38;73.60
6389;BME280;3227;42.654;23.360;2024-01-11T00:37:04;95317.19;;;-1.41;73.46
6389;BME280;3227;42.654;23.360;2024-01-11T00:39:31;95324.13;;;-1.37;73.25
6389;BME280;3227;42.654;23.360;2024-01-11T00:41:59;95332.00;;;-1.46;73.41
6389;BME280;3227;42.654;23.360;2024-01-11T00:44:26;95328.59;;;-1.46;74.15
6389;BME280;3227;42.654;23.360;2024-01-11T00:46:53;95320.81;;;-1.66;73.60
6389;BME280;3227;42.654;23.360;2024-01-11T00:49:20;95322.81;;;-1.60;73.55
6389;BME280;3227;42.654;23.360;2024-01-11T00:51:47;95309.56;;;-1.58;73.61
6389;BME280;3227;42.654;23.360;2024-01-11T00:54:14;95320.91;;;-1.49;73.61
6389;BME280;3227;42.654;23.360;2024-01-11T00:56:41;95309.91;;;-1.51;73.83
6389;BME280;3227;42.654;23.360;2024-01-11T00:59:09;95307.53;;;-1.63;73.81
6389;BME280;3227;42.654;23.360;2024-01-11T01:01:36;95294.72;;;-1.68;74.02
6389;BME280;3227;42.654;23.360;2024-01-11T01:04:03;95311.09;;;-1.60;73.65
6389;BME280;3227;42.654;23.360;2024-01-11T01:06:29;95305.88;;;-1.63;73.66
6389;BME280;3227;42.654;23.360;2024-01-11T01:08:56;95308.69;;;-1.58;73.72
6389;BME280;3227;42.654;23.360;2024-01-11T01:11:23;95298.97;;;-1.67;73.65
6389;BME280;3227;42.654;23.360;2024-01-11T01:13:50;95302.59;;;-1.62;72.37
6389;BME280;3227;42.654;23.360;2024-01-11T01:16:18;95307.19;;;-1.69;72.64
6389;BME280;3227;42.654;23.360;2024-01-11T01:18:45;95302.69;;;-1.75;72.99
6389;BME280;3227;42.654;23.360;2024-01-11T01:21:12;95302.06;;;-1.71;72.83
6389;BME280;3227;42.654;23.360;2024-01-11T01:23:38;95296.88;;;-1.74;73.10
6389;BME280;3227;42.654;23.360;2024-01-11T01:26:06;95308.75;;;-1.71;72.51
6389;BME280;3227;42.654;23.360;2024-01-11T01:28:33;95307.09;;;-1.71;72.78
6389;BME280;3227;42.654;23.360;2024-01-11T01:30:59;95312.22;;;-1.69;72.80
6389;BME280;3227;42.654;23.360;2024-01-11T01:33:28;95307.28;;;-1.68;72.76
6389;BME280;3227;42.654;23.360;2024-01-11T01:35:54;95298.44;;;-1.61;73.00
6389;BME280;3227;42.654;23.360;2024-01-11T01:38:21;95289.94;;;-1.63;72.69
6389;BME280;3227;42.654;23.360;2024-01-11T01:40:48;95305.75;;;-1.66;72.32
6389;BME280;3227;42.654;23.360;2024-01-11T01:43:15;95261.53;;;-1.77;72.45
6389;BME280;3227;42.654;23.360;2024-01-11T01:45:42;95285.97;;;-1.60;72.47
6389;BME280;3227;42.654;23.360;2024-01-11T01:48:08;95281.97;;;-1.56;72.09
6389;BME280;3227;42.654;23.360;2024-01-11T01:50:37;95275.06;;;-1.60;72.42
6389;BME280;3227;42.654;23.360;2024-01-11T01:53:03;95275.59;;;-1.66;72.61
6389;BME280;3227;42.654;23.360;2024-01-11T01:55:30;95272.13;;;-1.68;71.82
6389;BME280;3227;42.654;23.360;2024-01-11T01:57:58;95236.91;;;-1.97;71.68
6389;BME280;3227;42.654;23.360;2024-01-11T02:00:26;95275.72;;;-1.92;72.64
6389;BME280;3227;42.654;23.360;2024-01-11T02:02:55;95231.25;;;-2.22;72.47
6389;BME280;3227;42.654;23.360;2024-01-11T02:05:22;95260.34;;;-2.11;73.64
6389;BME280;3227;42.654;23.360;2024-01-11T02:07:50;95262.00;;;-2.12;73.48
6389;BME280;3227;42.654;23.360;2024-01-11T02:10:17;95254.22;;;-2.16;74.29
6389;BME280;3227;42.654;23.360;2024-01-11T02:12:45;95261.38;;;-2.22;74.01
6389;BME280;3227;42.654;23.360;2024-01-11T02:15:11;95215.63;;;-2.87;74.92
6389;BME280;3227;42.654;23.360;2024-01-11T02:17:40;95257.75;;;-2.69;75.78
6389;BME280;3227;42.654;23.360;2024-01-11T02:20:08;95248.16;;;-3.02;76.32
6389;BME280;3227;42.654;23.360;2024-01-11T02:22:35;95238.94;;;-3.16;77.03
6389;BME280;3227;42.654;23.360;2024-01-11T02:25:06;95254.09;;;-2.87;76.82
6389;BME280;3227;42.654;23.360;2024-01-11T02:27:44;95224.72;;;-2.89;76.07
6389;BME280;3227;42.654;23.360;2024-01-11T02:30:12;95243.94;;;-2.62;75.13
6389;BME280;3227;42.654;23.360;2024-01-11T02:32:39;95175.75;;;-3.11;75.34
6389;BME280;3227;42.654;23.360;2024-01-11T02:35:06;95227.69;;;-2.82;74.64
6389;BME280;3227;42.654;23.360;2024-01-11T02:37:34;95252.63;;;-2.70;74.51
6389;BME280;3227;42.654;23.360;2024-01-11T02:40:01;95257.16;;;-2.64;74.42
6389;BME280;3227;42.654;23.360;2024-01-11T02:42:29;95254.56;;;-2.66;74.21
6389;BME280;3227;42.654;23.360;2024-01-11T02:44:56;95247.59;;;-2.70;74.48
6389;BME280;3227;42.654;23.360;2024-01-11T02:47:23;95253.13;;;-2.76;74.24
6389;BME280;3227;42.654;23.360;2024-01-11T02:49:50;95246.88;;;-2.82;74.93
6389;BME280;3227;42.654;23.360;2024-01-11T02:52:16;95212.03;;;-2.78;74.54
6389;BME280;3227;42.654;23.360;2024-01-11T02:54:48;95241.19;;;-2.52;74.06
6389;BME280;3227;42.654;23.360;2024-01-11T02:57:15;95238.38;;;-2.43;73.18
6389;BME280;3227;42.654;23.360;2024-01-11T02:59:43;95237.84;;;-2.38;72.55
6389;BME280;3227;42.654;23.360;2024-01-11T03:02:10;95235.97;;;-2.42;72.80
6389;BME280;3227;42.654;23.360;2024-01-11T03:04:37;95240.66;;;-2.33;72.82
6389;BME280;3227;42.654;23.360;2024-01-11T03:07:04;95228.38;;;-2.28;72.31
6389;BME280;3227;42.654;23.360;2024-01-11T03:09:31;95225.00;;;-2.29;72.16
6389;BME280;3227;42.654;23.360;2024-01-11T03:11:58;95246.91;;;-2.26;72.44
6389;BME280;3227;42.654;23.360;2024-01-11T03:14:25;95205.31;;;-2.51;71.25
6389;BME280;3227;42.654;23.360;2024-01-11T03:16:53;95229.56;;;-2.37;71.70
6389;BME280;3227;42.654;23.360;2024-01-11T03:19:20;95235.19;;;-2.41;71.65
6389;BME280;3227;42.654;23.360;2024-01-11T03:21:47;95238.78;;;-2.50;72.08
6389;BME280;3227;42.654;23.360;2024-01-11T03:24:14;95190.69;;;-2.71;72.04
6389;BME280;3227;42.654;23.360;2024-01-11T03:26:41;95229.25;;;-2.56;71.86
6389;BME280;3227;42.654;23.360;2024-01-11T03:29:07;95224.09;;;-2.72;72.50
6389;BME280;3227;42.654;23.360;2024-01-11T03:31:34;95236.72;;;-2.71;74.31
6389;BME280;3227;42.654;23.360;2024-01-11T03:34:04;95206.66;;;-2.84;74.61
6389;BME280;3227;42.654;23.360;2024-01-11T03:36:31;95234.03;;;-2.74;74.62
6389;BME280;3227;42.654;23.360;2024-01-11T03:38:58;95229.91;;;-2.86;74.40
6389;BME280;3227;42.654;23.360;2024-01-11T03:41:25;95194.84;;;-3.13;74.67
6389;BME280;3227;42.654;23.360;2024-01-11T03:43:51;95203.50;;;-2.94;73.97
6389;BME280;3227;42.654;23.360;2024-01-11T03:46:18;95232.97;;;-2.77;73.99
6389;BME280;3227;42.654;23.360;2024-01-11T03:48:45;95227.38;;;-2.73;73.86
6389;BME280;3227;42.654;23.360;2024-01-11T03:51:14;95227.13;;;-2.63;72.87
6389;BME280;3227;42.654;23.360;2024-01-11T03:53:40;95223.00;;;-2.62;72.65
6389;BME280;3227;42.654;23.360;2024-01-11T03:56:07;95222.59;;;-2.55;72.56
6389;BME280;3227;42.654;23.360;2024-01-11T03:58:36;95216.22;;;-2.50;71.75
6389;BME280;3227;42.654;23.360;2024-01-11T04:01:04;95206.72;;;-2.41;71.71
6389;BME280;3227;42.654;23.360;2024-01-11T04:03:32;95214.50;;;-2.37;70.79
6389;BME280;3227;42.654;23.360;2024-01-11T04:05:59;95143.34;;;-2.80;70.87
6389;BME280;3227;42.654;23.360;2024-01-11T04:08:27;95221.25;;;-2.36;70.94
6389;BME280;3227;42.654;23.360;2024-01-11T04:10:54;95208.63;;;-2.37;71.08
6389;BME280;3227;42.654;23.360;2024-01-11T04:13:21;95214.50;;;-2.37;71.64
6389;BME280;3227;42.654;23.360;2024-01-11T04:15:47;95215.88;;;-2.42;71.97
6389;BME280;3227;42.654;23.360;2024-01-11T04:18:14;95208.44;;;-2.40;71.88
6389;BME280;3227;42.654;23.360;2024-01-11T04:20:41;95207.69;;;-2.39;71.51
6389;BME280;3227;42.654;23.360;2024-01-11T04:23:08;95204.13;;;-2.43;71.07
6389;BME280;3227;42.654;23.360;2024-01-11T04:25:36;95198.03;;;-2.46;71.07
6389;BME280;3227;42.654;23.360;2024-01-11T04:28:03;95169.19;;;-2.67;71.65
6389;BME280;3227;42.654;23.360;2024-01-11T04:30:31;95202.03;;;-2.50;71.87
6389;BME280;3227;42.654;23.360;2024-01-11T04:33:03;95199.78;;;-2.45;71.76
6389;BME280;3227;42.654;23.360;2024-01-11T04:35:30;95159.88;;;-2.83;71.57
6389;BME280;3227;42.654;23.360;2024-01-11T04:37:57;95198.84;;;-2.47;71.92
6389;BME280;3227;42.654;23.360;2024-01-11T04:40:24;95194.72;;;-2.60;72.62
6389;BME280;3227;42.654;23.360;2024-01-11T04:42:52;95204.94;;;-2.57;72.11
6389;BME280;3227;42.654;23.360;2024-01-11T04:45:19;95204.66;;;-2.61;72.57
6389;BME280;3227;42.654;23.360;2024-01-11T04:47:45;95198.19;;;-2.58;72.22
6389;BME280;3227;42.654;23.360;2024-01-11T04:50:12;95204.94;;;-2.57;71.90
6389;BME280;3227;42.654;23.360;2024-01-11T04:52:39;95208.91;;;-2.60;72.08
6389;BME280;3227;42.654;23.360;2024-01-11T04:55:06;95203.22;;;-2.58;72.03
6389;BME280;3227;42.654;23.360;2024-01-11T04:57:33;95215.16;;;-2.54;71.70
6389;BME280;3227;42.654;23.360;2024-01-11T05:00:01;95201.56;;;-2.57;71.70
6389;BME280;3227;42.654;23.360;2024-01-11T05:02:28;95167.19;;;-2.73;71.96
6389;BME280;3227;42.654;23.360;2024-01-11T05:04:55;95212.31;;;-2.45;71.78
6389;BME280;3227;42.654;23.360;2024-01-11T05:07:22;95203.91;;;-2.46;71.49
6389;BME280;3227;42.654;23.360;2024-01-11T05:09:48;95209.47;;;-2.37;71.52
6389;BME280;3227;42.654;23.360;2024-01-11T05:12:15;95204.13;;;-2.43;71.18
6389;BME280;3227;42.654;23.360;2024-01-11T05:14:42;95203.16;;;-2.45;71.25
6389;BME280;3227;42.654;23.360;2024-01-11T05:17:10;95181.72;;;-2.67;71.23
6389;BME280;3227;42.654;23.360;2024-01-11T05:19:36;95201.56;;;-2.57;71.24
6389;BME280;3227;42.654;23.360;2024-01-11T05:22:03;95153.31;;;-2.81;71.78
6389;BME280;3227;42.654;23.360;2024-01-11T05:24:30;95183.31;;;-2.55;71.67
6389;BME280;3227;42.654;23.360;2024-01-11T05:26:57;95188.59;;;-2.50;70.97
6389;BME280;3227;42.654;23.360;2024-01-11T05:29:24;95183.69;;;-2.49;71.47
6389;BME280;3227;42.654;23.360;2024-01-11T05:31:51;95186.75;;;-2.40;71.08
6389;BME280;3227;42.654;23.360;2024-01-11T05:34:19;95172.50;;;-2.54;71.05
6389;BME280;3227;42.654;23.360;2024-01-11T05:36:46;95183.59;;;-2.50;71.67
6389;BME280;3227;42.654;23.360;2024-01-11T05:39:13;95173.44;;;-2.66;71.48
6389;BME280;3227;42.654;23.360;2024-01-11T05:41:43;95182.94;;;-2.61;72.43
6389;BME280;3227;42.654;23.360;2024-01-11T05:44:10;95177.44;;;-2.55;70.97
6389;BME280;3227;42.654;23.360;2024-01-11T05:46:37;95173.47;;;-2.52;71.30
6389;BME280;3227;42.654;23.360;2024-01-11T05:49:03;95179.25;;;-2.53;71.30
6389;BME280;3227;42.654;23.360;2024-01-11T05:51:32;95182.53;;;-2.54;70.89
6389;BME280;3227;42.654;23.360;2024-01-11T05:53:59;95130.66;;;-2.83;71.24
6389;BME280;3227;42.654;23.360;2024-01-11T05:56:26;95165.75;;;-2.55;71.19
6389;BME280;3227;42.654;23.360;2024-01-11T05:58:52;95168.63;;;-2.49;71.93
6389;BME280;3227;42.654;23.360;2024-01-11T06:01:19;95158.59;;;-2.49;71.66
6389;BME280;3227;42.654;23.360;2024-01-11T06:03:46;95159.47;;;-2.48;71.41
6389;BME280;3227;42.654;23.360;2024-01-11T06:06:13;95152.81;;;-2.48;72.20
6389;BME280;3227;42.654;23.360;2024-01-11T06:08:41;95158.94;;;-2.43;71.74
6389;BME280;3227;42.654;23.360;2024-01-11T06:11:09;95161.03;;;-2.36;71.83
6389;BME280;3227;42.654;23.360;2024-01-11T06:13:35;95127.19;;;-2.57;71.81
6389;BME280;3227;42.654;23.360;2024-01-11T06:16:02;95160.25;;;-2.35;71.05
6389;BME280;3227;42.654;23.360;2024-01-11T06:18:29;95165.13;;;-2.23;71.36
6389;BME280;3227;42.654;23.360;2024-01-11T06:20:56;95166.78;;;-2.09;71.33
6389;BME280;3227;42.654;23.360;2024-01-11T06:23:24;95159.34;;;-1.93;70.46
6389;BME280;3227;42.654;23.360;2024-01-11T06:25:53;95162.28;;;-1.85;69.71
6389;BME280;3227;42.654;23.360;2024-01-11T06:28:20;95162.44;;;-1.82;69.60
6389;BME280;3227;42.654;23.360;2024-01-11T06:30:46;95079.84;;;-2.21;69.51
6389;BME280;3227;42.654;23.360;2024-01-11T06:33:13;95151.94;;;-1.60;69.95
6389;BME280;3227;42.654;23.360;2024-01-11T06:35:40;95153.91;;;-1.55;68.92
6389;BME280;3227;42.654;23.360;2024-01-11T06:38:07;95155.28;;;-1.45;69.39
6389;BME280;3227;42.654;23.360;2024-01-11T06:40:34;95150.06;;;-1.33;69.06
6389;BME280;3227;42.654;23.360;2024-01-11T06:43:02;95143.56;;;-1.13;68.27
6389;BME280;3227;42.654;23.360;2024-01-11T06:45:29;95022.25;;;-1.73;67.08
6389;BME280;3227;42.654;23.360;2024-01-11T06:47:56;95101.09;;;-1.09;67.30
6389;BME280;3227;42.654;23.360;2024-01-11T06:50:23;95136.63;;;-0.70;67.02
6389;BME280;3227;42.654;23.360;2024-01-11T06:52:50;95034.59;;;-1.30;66.78
6389;BME280;3227;42.654;23.360;2024-01-11T06:55:17;95141.97;;;-0.64;65.47
6389;BME280;3227;42.654;23.360;2024-01-11T06:57:46;95132.38;;;-0.55;65.63
6389;BME280;3227;42.654;23.360;2024-01-11T07:00:15;95139.44;;;-0.48;65.68
6389;BME280;3227;42.654;23.360;2024-01-11T07:02:41;95144.97;;;-0.55;65.82
6389;BME280;3227;42.654;23.360;2024-01-11T07:05:08;95133.72;;;-0.78;65.86
6389;BME280;3227;42.654;23.360;2024-01-11T07:07:35;95104.09;;;-1.00;66.48
6389;BME280;3227;42.654;23.360;2024-01-11T07:10:02;95142.31;;;-0.74;66.41
6389;BME280;3227;42.654;23.360;2024-01-11T07:12:31;95138.53;;;-0.66;66.70
6389;BME280;3227;42.654;23.360;2024-01-11T07:14:57;95142.31;;;-0.58;66.60
6389;BME280;3227;42.654;23.360;2024-01-11T07:17:25;95141.09;;;-0.65;65.87
6389;BME280;3227;42.654;23.360;2024-01-11T07:19:52;95149.13;;;-0.72;66.72
6389;BME280;3227;42.654;23.360;2024-01-11T07:22:19;95120.91;;;-0.83;67.58
6389;BME280;3227;42.654;23.360;2024-01-11T07:24:46;95123.44;;;-0.66;67.20
6389;BME280;3227;42.654;23.360;2024-01-11T07:27:13;95122.47;;;-0.52;67.06
6389;BME280;3227;42.654;23.360;2024-01-11T07:29:39;95141.94;;;-0.32;65.83
6389;BME280;3227;42.654;23.360;2024-01-11T07:32:06;95123.88;;;-0.41;65.77
6389;BME280;3227;42.654;23.360;2024-01-11T07:34:34;95126.81;;;-0.16;66.92
6389;BME280;3227;42.654;23.360;2024-01-11T07:37:01;95139.94;;;-0.05;64.96
6389;BME280;3227;42.654;23.360;2024-01-11T07:39:29;95139.63;;;0.05;64.83
6389;BME280;3227;42.654;23.360;2024-01-11T07:41:56;95131.72;;;0.15;68.07
6389;BME280;3227;42.654;23.360;2024-01-11T07:44:23;95135.19;;;0.70;72.85
6389;BME280;3227;42.654;23.360;2024-01-11T07:46:50;95130.56;;;0.80;69.15
6389;BME280;3227;42.654;23.360;2024-01-11T07:49:16;95130.84;;;0.86;63.45
6389;BME280;3227;42.654;23.360;2024-01-11T07:51:45;95131.53;;;0.46;63.71
6389;BME280;3227;42.654;23.360;2024-01-11T07:54:11;95131.72;;;0.86;63.12
6389;BME280;3227;42.654;23.360;2024-01-11T07:56:38;95124.81;;;0.82;61.93
6389;BME280;3227;42.654;23.360;2024-01-11T07:59:05;95079.13;;;0.58;61.86
6389;BME280;3227;42.654;23.360;2024-01-11T08:01:32;95119.22;;;1.07;61.47
6389;BME280;3227;42.654;23.360;2024-01-11T08:04:00;95129.31;;;1.26;60.11
6389;BME280;3227;42.654;23.360;2024-01-11T08:06:28;95124.53;;;1.13;59.88
6389;BME280;3227;42.654;23.360;2024-01-11T08:08:56;95119.47;;;0.76;60.39
6389;BME280;3227;42.654;23.360;2024-01-11T08:11:23;95118.06;;;0.83;60.17
6389;BME280;3227;42.654;23.360;2024-01-11T08:13:50;95119.59;;;0.97;62.27
6389;BME280;3227;42.654;23.360;2024-01-11T08:16:18;95105.44;;;1.00;59.14
6389;BME280;3227;42.654;23.360;2024-01-11T08:18:45;95121.84;;;1.10;60.30
6389;BME280;3227;42.654;23.360;2024-01-11T08:21:13;95103.84;;;1.02;59.12
6389;BME280;3227;42.654;23.360;2024-01-11T08:23:40;95106.28;;;0.82;60.11
6389;BME280;3227;42.654;23.360;2024-01-11T08:26:13;95110.38;;;0.80;59.87
6389;BME280;3227;42.654;23.360;2024-01-11T08:28:41;95116.84;;;0.74;60.47
6389;BME280;3227;42.654;23.360;2024-01-11T08:31:08;95056.22;;;-0.35;62.91
6389;BME280;3227;42.654;23.360;2024-01-11T08:33:34;95113.47;;;0.03;63.28
6389;BME280;3227;42.654;23.360;2024-01-11T08:36:03;95108.75;;;-0.25;64.32
6389;BME280;3227;42.654;23.360;2024-01-11T08:38:30;95106.50;;;-0.03;64.43
6389;BME280;3227;42.654;23.360;2024-01-11T08:40:57;95119.75;;;-0.23;65.03
6389;BME280;3227;42.654;23.360;2024-01-11T08:43:27;95123.59;;;-0.13;64.79
6389;BME280;3227;42.654;23.360;2024-01-11T08:45:54;95090.47;;;-0.21;65.27
6389;BME280;3227;42.654;23.360;2024-01-11T08:48:20;95081.06;;;-0.41;65.86
6389;BME280;3227;42.654;23.360;2024-01-11T08:50:47;95107.47;;;-0.33;66.89
6389;BME280;3227;42.654;23.360;2024-01-11T08:53:14;95105.78;;;0.18;66.17
6389;BME280;3227;42.654;23.360;2024-01-11T08:55:43;95096.06;;;0.43;66.14
6389;BME280;3227;42.654;23.360;2024-01-11T08:58:09;95068.22;;;0.40;64.11
6389;BME280;3227;42.654;23.360;2024-01-11T09:00:38;95085.16;;;0.80;64.84
6389;BME280;3227;42.654;23.360;2024-01-11T09:03:09;95096.63;;;1.29;64.65
6389;BME280;3227;42.654;23.360;2024-01-11T09:05:37;95068.06;;;1.30;60.30
6389;BME280;3227;42.654;23.360;2024-01-11T09:08:04;95079.41;;;1.59;62.88
6389;BME280;3227;42.654;23.360;2024-01-11T09:10:32;95082.78;;;1.79;61.09
6389;BME280;3227;42.654;23.360;2024-01-11T09:12:59;95075.03;;;1.95;60.35
6389;BME280;3227;42.654;23.360;2024-01-11T09:15:26;95067.50;;;2.17;60.05
6389;BME280;3227;42.654;23.360;2024-01-11T09:17:54;95046.53;;;2.20;58.68
6389;BME280;3227;42.654;23.360;2024-01-11T09:20:21;95071.69;;;2.38;59.07
6389;BME280;3227;42.654;23.360;2024-01-11T09:22:47;95062.66;;;2.44;58.10
6389;BME280;3227;42.654;23.360;2024-01-11T09:25:14;95052.25;;;2.59;58.57
6389;BME280;3227;42.654;23.360;2024-01-11T09:27:41;95043.38;;;2.48;57.16
6389;BME280;3227;42.654;23.360;2024-01-11T09:30:08;95027.84;;;2.16;57.44
6389;BME280;3227;42.654;23.360;2024-01-11T09:32:35;95044.06;;;2.21;58.89
6389;BME280;3227;42.654;23.360;2024-01-11T09:35:04;95045.53;;;2.16;58.67
6389;BME280;3227;42.654;23.360;2024-01-11T09:37:31;95022.38;;;1.85;58.19
6389;BME280;3227;42.654;23.360;2024-01-11T09:39:58;94942.03;;;1.35;58.24
6389;BME280;3227;42.654;23.360;2024-01-11T09:42:26;95032.84;;;1.94;58.77
6389;BME280;3227;42.654;23.360;2024-01-11T09:44:53;95026.81;;;2.11;59.01
6389;BME280;3227;42.654;23.360;2024-01-11T09:47:21;95020.25;;;2.16;59.93
6389;BME280;3227;42.654;23.360;2024-01-11T09:49:49;94918.38;;;1.74;59.79
6389;BME280;3227;42.654;23.360;2024-01-11T09:52:19;95009.31;;;2.38;58.83
6389;BME280;3227;42.654;23.360;2024-01-11T09:54:47;95001.31;;;2.50;59.26
6389;BME280;3227;42.654;23.360;2024-01-11T09:57:16;95003.28;;;2.79;59.08
6389;BME280;3227;42.654;23.360;2024-01-11T09:59:45;94974.66;;;3.04;57.36
6389;BME280;3227;42.654;23.360;2024-01-11T10:02:13;94990.63;;;3.27;55.38
6389;BME280;3227;42.654;23.360;2024-01-11T10:04:42;94987.38;;;3.31;55.84
6389;BME280;3227;42.654;23.360;2024-01-11T10:07:09;94979.44;;;2.96;55.26
6389;BME280;3227;42.654;23.360;2024-01-11T10:09:38;94980.53;;;2.81;57.15
6389;BME280;3227;42.654;23.360;2024-01-11T10:12:05;94898.63;;;2.31;55.76
6389;BME280;3227;42.654;23.360;2024-01-11T10:14:32;94976.16;;;2.31;57.76
6389;BME280;3227;42.654;23.360;2024-01-11T10:16:59;94931.69;;;2.36;58.58
6389;BME280;3227;42.654;23.360;2024-01-11T10:19:27;94944.91;;;2.75;57.35
6389;BME280;3227;42.654;23.360;2024-01-11T10:21:53;94943.88;;;2.93;56.95
6389;BME280;3227;42.654;23.360;2024-01-11T10:24:20;94906.53;;;2.86;56.62
6389;BME280;3227;42.654;23.360;2024-01-11T10:26:55;94916.31;;;3.01;56.48
6389;BME280;3227;42.654;23.360;2024-01-11T10:29:22;94922.00;;;3.19;55.66
6389;BME280;3227;42.654;23.360;2024-01-11T10:31:49;94919.31;;;2.91;54.80
6389;BME280;3227;42.654;23.360;2024-01-11T10:34:16;94922.91;;;2.97;55.18
6389;BME280;3227;42.654;23.360;2024-01-11T10:36:43;94928.78;;;3.20;55.32
6389;BME280;3227;42.654;23.360;2024-01-11T10:39:09;94919.63;;;3.24;54.00
6389;BME280;3227;42.654;23.360;2024-01-11T10:41:39;94922.78;;;2.69;55.12
6389;BME280;3227;42.654;23.360;2024-01-11T10:44:15;94820.94;;;2.03;56.59
6389;BME280;3227;42.654;23.360;2024-01-11T10:46:45;94906.38;;;2.36;57.48
6389;BME280;3227;42.654;23.360;2024-01-11T10:49:15;94901.88;;;2.05;58.04
6389;BME280;3227;42.654;23.360;2024-01-11T10:51:45;94904.06;;;1.75;58.81
6389;BME280;3227;42.654;23.360;2024-01-11T10:54:15;94900.88;;;1.17;61.63
6389;BME280;3227;42.654;23.360;2024-01-11T10:56:42;94863.41;;;1.26;61.60
6389;BME280;3227;42.654;23.360;2024-01-11T10:59:13;94866.47;;;1.60;60.37
6389;BME280;3227;42.654;23.360;2024-01-11T11:01:40;94886.00;;;1.02;62.29
6389;BME280;3227;42.654;23.360;2024-01-11T11:04:08;94786.91;;;0.05;65.09
6389;BME280;3227;42.654;23.360;2024-01-11T11:06:36;94886.84;;;0.82;64.60
6389;BME280;3227;42.654;23.360;2024-01-11T11:09:04;94875.66;;;0.96;64.30
6389;BME280;3227;42.654;23.360;2024-01-11T11:11:34;94839.16;;;0.88;63.29
6389;BME280;3227;42.654;23.360;2024-01-11T11:14:01;94852.25;;;0.79;64.70
6389;BME280;3227;42.654;23.360;2024-01-11T11:16:29;94860.88;;;1.26;63.77
6389;BME280;3227;42.654;23.360;2024-01-11T11:18:56;94848.94;;;1.22;63.66
6389;BME280;3227;42.654;23.360;2024-01-11T11:21:23;94851.00;;;1.52;63.42
6389;BME280;3227;42.654;23.360;2024-01-11T11:24:12;94837.59;;;1.76;62.02
6389;BME280;3227;42.654;23.360;2024-01-11T11:26:39;94840.84;;;1.73;61.42
6389;BME280;3227;42.654;23.360;2024-01-11T11:29:06;94837.56;;;1.98;62.11
6389;BME280;3227;42.654;23.360;2024-01-11T11:31:38;94814.69;;;2.17;60.58
6389;BME280;3227;42.654;23.360;2024-01-11T11:34:10;94810.56;;;2.19;59.52
6389;BME280;3227;42.654;23.360;2024-01-11T11:36:39;94779.38;;;1.95;59.84
6389;BME280;3227;42.654;23.360;2024-01-11T11:39:34;94811.63;;;2.02;60.75
6389;BME280;3227;42.654;23.360;2024-01-11T11:42:01;94772.97;;;2.28;59.95
6389;BME280;3227;42.654;23.360;2024-01-11T11:44:29;94772.25;;;2.09;60.10
6389;BME280;3227;42.654;23.360;2024-01-11T11:47:18;94767.63;;;2.45;59.79
6389;BME280;3227;42.654;23.360;2024-01-11T11:49:57;94773.00;;;2.79;58.15
6389;BME280;3227;42.654;23.360;2024-01-11T11:52:25;94754.44;;;2.53;58.73
6389;BME280;3227;42.654;23.360;2024-01-11T11:54:53;94770.50;;;2.81;58.08
6389;BME280;3227;42.654;23.360;2024-01-11T11:57:20;94789.00;;;2.53;58.33
6389;BME280;3227;42.654;23.360;2024-01-11T11:59:48;94784.25;;;2.62;59.60
6389;BME280;3227;42.654;23.360;2024-01-11T12:02:17;94766.31;;;2.56;58.64
6389;BME280;3227;42.654;23.360;2024-01-11T12:04:46;94744.50;;;2.34;59.13
6389;BME280;3227;42.654;23.360;2024-01-11T12:07:14;94764.56;;;2.79;59.26
6389;BME280;3227;42.654;23.360;2024-01-11T12:09:40;94769.84;;;3.12;57.91
6389;BME280;3227;42.654;23.360;2024-01-11T12:12:08;94766.78;;;3.22;56.87
6389;BME280;3227;42.654;23.360;2024-01-11T12:14:35;94768.19;;;3.40;56.63
6389;BME280;3227;42.654;23.360;2024-01-11T12:17:03;94749.09;;;3.50;57.01
6389;BME280;3227;42.654;23.360;2024-01-11T12:19:31;94751.41;;;3.72;55.75
6389;BME280;3227;42.654;23.360;2024-01-11T12:21:59;94744.00;;;3.78;56.04
6389;BME280;3227;42.654;23.360;2024-01-11T12:24:26;94733.59;;;3.99;55.96
6389;BME280;3227;42.654;23.360;2024-01-11T12:26:56;94739.31;;;4.22;55.75
6389;BME280;3227;42.654;23.360;2024-01-11T12:29:24;94736.94;;;4.28;55.13
6389;BME280;3227;42.654;23.360;2024-01-11T12:31:51;94734.06;;;4.47;54.95
6389;BME280;3227;42.654;23.360;2024-01-11T12:34:22;94731.91;;;4.63;54.30
6389;BME280;3227;42.654;23.360;2024-01-11T12:36:51;94715.63;;;4.54;54.68
6389;BME280;3227;42.654;23.360;2024-01-11T12:39:20;94691.94;;;4.52;55.23
6389;BME280;3227;42.654;23.360;2024-01-11T12:41:48;94718.78;;;4.79;55.31
6389;BME280;3227;42.654;23.360;2024-01-11T12:44:15;94714.53;;;4.78;54.96
6389;BME280;3227;42.654;23.360;2024-01-11T12:46:43;94700.72;;;4.67;55.42
6389;BME280;3227;42.654;23.360;2024-01-11T12:49:10;94709.66;;;4.85;55.24
6389;BME280;3227;42.654;23.360;2024-01-11T12:51:37;94689.41;;;4.88;55.50
6389;BME280;3227;42.654;23.360;2024-01-11T12:54:11;94693.28;;;5.09;54.41
6389;BME280;3227;42.654;23.360;2024-01-11T12:56:43;94701.59;;;5.03;54.28
6389;BME280;3227;42.654;23.360;2024-01-11T12:59:10;94698.44;;;5.13;55.01
6389;BME280;3227;42.654;23.360;2024-01-11T13:01:38;94688.06;;;5.40;54.36
6389;BME280;3227;42.654;23.360;2024-01-11T13:04:05;94683.53;;;5.66;53.87
6389;BME280;3227;42.654;23.360;2024-01-11T13:06:34;94687.97;;;5.76;53.21
6389;BME280;3227;42.654;23.360;2024-01-11T13:09:02;94679.47;;;5.74;53.13
6389;BME280;3227;42.654;23.360;2024-01-11T13:11:31;94680.28;;;5.73;53.65
6389;BME280;3227;42.654;23.360;2024-01-11T13:13:58;94676.22;;;5.81;53.95
6389;BME280;3227;42.654;23.360;2024-01-11T13:16:30;94672.22;;;5.91;53.72